sensor_id;sensor_type;location;lat;lon;timestamp;pressure;altitude;pressure_sealevel;temperature;humidity
21566;BME280;10943;48.738;9.320;2022-11-12T00:00:49;100460.22;;;6.90;71.58
21566;BME280;10943;48.738;9.320;2022-11-12T00:03:35;100463.72;;;6.75;71.30
21566;BME280;10943;48.738;9.320;2022-11-12T00:06:22;100458.44;;;6.66;72.44
21566;BME280;10943;48.738;9.320;2022-11-12T00:09:07;100452.69;;;6.75;70.62
21566;BME280;10943;48.738;9.320;2022-11-12T00:11:53;100458.72;;;6.79;70.21
21566;BME280;10943;48.738;9.320;2022-11-12T00:14:38;100454.63;;;6.67;71.46
21566;BME280;10943;48.738;9.320;2022-11-12T00:17:24;100461.81;;;6.84;70.87
21566;BME280;10943;48.738;9.320;2022-11-12T00:20:11;100461.84;;;6.68;70.97
21566;BME280;10943;48.738;9.320;2022-11-12T00:22:57;100458.91;;;6.69;71.23
21566;BME280;10943;48.738;9.320;2022-11-12T00:25:44;100457.88;;;6.79;70.98
21566;BME280;10943;48.738;9.320;2022-11-12T00:28:30;100460.97;;;6.84;70.38
21566;BME280;10943;48.738;9.320;2022-11-12T00:31:22;100455.59;;;6.90;70.50
21566;BME280;10943;48.738;9.320;2022-11-12T00:34:08;100463.66;;;7.32;69.02
21566;BME280;10943;48.738;9.320;2022-11-12T00:36:54;100463.41;;;7.50;68.05
21566;BME280;10943;48.738;9.320;2022-11-12T00:39:39;100463.13;;;7.68;67.15
21566;BME280;10943;48.738;9.320;2022-11-12T00:42:25;100459.97;;;7.48;67.87
21566;BME280;10943;48.738;9.320;2022-11-12T00:45:11;100453.44;;;7.49;66.88
21566;BME280;10943;48.738;9.320;2022-11-12T00:47:57;100449.78;;;7.17;67.33
21566;BME280;10943;48.738;9.320;2022-11-12T00:50:44;100453.13;;;7.43;66.66
21566;BME280;10943;48.738;9.320;2022-11-12T00:53:29;100460.75;;;7.33;67.23
21566;BME280;10943;48.738;9.320;2022-11-12T00:56:16;100460.75;;;7.33;66.92
21566;BME280;10943;48.738;9.320;2022-11-12T00:59:02;100454.47;;;7.48;67.33
21566;BME280;10943;48.738;9.320;2022-11-12T01:01:48;100458.13;;;7.40;67.20
21566;BME280;10943;48.738;9.320;2022-11-12T01:04:34;100455.81;;;7.20;68.16
21566;BME280;10943;48.738;9.320;2022-11-12T01:07:19;100466.34;;;7.17;68.38
21566;BME280;10943;48.738;9.320;2022-11-12T01:10:06;100454.94;;;7.20;66.93
21566;BME280;10943;48.738;9.320;2022-11-12T01:12:53;100456.97;;;6.94;69.07
21566;BME280;10943;48.738;9.320;2022-11-12T01:15:40;100457.94;;;7.02;68.71
21566;BME280;10943;48.738;9.320;2022-11-12T01:18:27;100454.34;;;7.01;68.14
21566;BME280;10943;48.738;9.320;2022-11-12T01:21:14;100457.25;;;7.08;67.71
21566;BME280;10943;48.738;9.320;2022-11-12T01:24:00;100451.84;;;7.15;68.32
21566;BME280;10943;48.738;9.320;2022-11-12T01:26:47;100453.19;;;7.58;67.45
21566;BME280;10943;48.738;9.320;2022-11-12T01:29:33;100446.09;;;7.64;67.21
21566;BME280;10943;48.738;9.320;2022-11-12T01:32:18;100446.00;;;7.72;66.92
21566;BME280;10943;48.738;9.320;2022-11-12T01:35:04;100451.28;;;7.59;67.37
21566;BME280;10943;48.738;9.320;2022-11-12T01:37:50;100450.47;;;7.50;67.76
21566;BME280;10943;48.738;9.320;2022-11-12T01:40:36;100446.72;;;7.43;68.06
21566;BME280;10943;48.738;9.320;2022-11-12T01:43:25;100444.00;;;7.35;68.31
21566;BME280;10943;48.738;9.320;2022-11-12T01:46:27;100434.28;;;7.70;66.97
21566;BME280;10943;48.738;9.320;2022-11-12T01:49:22;100437.94;;;7.39;67.87
21566;BME280;10943;48.738;9.320;2022-11-12T01:55:18;100435.03;;;7.41;68.33
21566;BME280;10943;48.738;9.320;2022-11-12T01:58:11;100442.78;;;7.37;68.50
21566;BME280;10943;48.738;9.320;2022-11-12T02:01:01;100430.09;;;7.28;69.02
21566;BME280;10943;48.738;9.320;2022-11-12T02:03:48;100432.31;;;7.79;68.09
21566;BME280;10943;48.738;9.320;2022-11-12T02:06:35;100426.88;;;7.94;67.39
21566;BME280;10943;48.738;9.320;2022-11-12T02:09:22;100433.34;;;8.01;67.05
21566;BME280;10943;48.738;9.320;2022-11-12T02:12:08;100426.69;;;7.96;66.45
21566;BME280;10943;48.738;9.320;2022-11-12T02:15:14;100430.38;;;7.88;67.07
21566;BME280;10943;48.738;9.320;2022-11-12T02:18:00;100428.41;;;7.97;66.12
21566;BME280;10943;48.738;9.320;2022-11-12T02:20:56;100426.47;;;8.35;65.66
21566;BME280;10943;48.738;9.320;2022-11-12T02:23:43;100418.91;;;7.99;66.49
21566;BME280;10943;48.738;9.320;2022-11-12T02:26:34;100416.06;;;7.61;67.57
21566;BME280;10943;48.738;9.320;2022-11-12T02:29:22;100412.50;;;7.75;67.62
21566;BME280;10943;48.738;9.320;2022-11-12T02:32:07;100405.81;;;7.93;66.54
21566;BME280;10943;48.738;9.320;2022-11-12T02:34:53;100404.34;;;7.82;67.50
21566;BME280;10943;48.738;9.320;2022-11-12T02:37:39;100408.09;;;7.89;66.78
21566;BME280;10943;48.738;9.320;2022-11-12T02:40:25;100396.13;;;7.97;66.42
21566;BME280;10943;48.738;9.320;2022-11-12T02:43:11;100406.53;;;8.10;65.94
21566;BME280;10943;48.738;9.320;2022-11-12T02:45:57;100413.59;;;8.13;65.92
21566;BME280;10943;48.738;9.320;2022-11-12T02:48:43;100413.28;;;8.07;66.47
21566;BME280;10943;48.738;9.320;2022-11-12T02:51:29;100414.31;;;8.06;66.44
21566;BME280;10943;48.738;9.320;2022-11-12T02:54:15;100407.22;;;8.27;65.98
21566;BME280;10943;48.738;9.320;2022-11-12T02:57:01;100423.50;;;8.22;65.90
21566;BME280;10943;48.738;9.320;2022-11-12T02:59:47;100414.66;;;8.26;65.06
21566;BME280;10943;48.738;9.320;2022-11-12T03:02:43;100413.56;;;8.51;65.25
21566;BME280;10943;48.738;9.320;2022-11-12T03:05:45;100412.41;;;8.60;64.75
21566;BME280;10943;48.738;9.320;2022-11-12T03:08:38;100418.44;;;8.64;64.73
21566;BME280;10943;48.738;9.320;2022-11-12T03:11:24;100414.09;;;8.31;66.15
21566;BME280;10943;48.738;9.320;2022-11-12T03:14:11;100419.09;;;8.81;64.15
21566;BME280;10943;48.738;9.320;2022-11-12T03:16:58;100411.03;;;8.26;65.32
21566;BME280;10943;48.738;9.320;2022-11-12T03:19:45;100412.59;;;8.43;66.17
21566;BME280;10943;48.738;9.320;2022-11-12T03:22:30;100413.84;;;8.56;65.14
21566;BME280;10943;48.738;9.320;2022-11-12T03:25:16;100409.41;;;8.85;64.34
21566;BME280;10943;48.738;9.320;2022-11-12T03:28:10;100418.75;;;8.84;63.82
21566;BME280;10943;48.738;9.320;2022-11-12T03:30:59;100402.91;;;8.48;65.34
21566;BME280;10943;48.738;9.320;2022-11-12T03:33:46;100397.78;;;8.21;66.24
21566;BME280;10943;48.738;9.320;2022-11-12T03:36:32;100402.19;;;8.31;66.29
21566;BME280;10943;48.738;9.320;2022-11-12T03:39:19;100407.69;;;8.54;65.91
21566;BME280;10943;48.738;9.320;2022-11-12T03:42:06;100415.28;;;8.52;65.41
21566;BME280;10943;48.738;9.320;2022-11-12T03:44:52;100407.69;;;8.54;65.25
21566;BME280;10943;48.738;9.320;2022-11-12T03:47:50;100406.34;;;8.50;64.95
21566;BME280;10943;48.738;9.320;2022-11-12T03:50:39;100427.13;;;8.75;64.04
21566;BME280;10943;48.738;9.320;2022-11-12T03:53:26;100419.31;;;8.64;64.17
21566;BME280;10943;48.738;9.320;2022-11-12T03:56:15;100422.31;;;8.39;64.75
21566;BME280;10943;48.738;9.320;2022-11-12T03:59:33;100421.88;;;8.27;65.02
21566;BME280;10943;48.738;9.320;2022-11-12T04:02:20;100423.00;;;8.03;66.19
21566;BME280;10943;48.738;9.320;2022-11-12T04:05:10;100413.72;;;8.34;65.82
21566;BME280;10943;48.738;9.320;2022-11-12T04:08:21;100416.84;;;8.31;65.83
21566;BME280;10943;48.738;9.320;2022-11-12T04:11:23;100424.16;;;8.47;65.25
21566;BME280;10943;48.738;9.320;2022-11-12T04:14:10;100428.06;;;8.53;64.84
21566;BME280;10943;48.738;9.320;2022-11-12T04:16:56;100418.38;;;8.19;65.49
21566;BME280;10943;48.738;9.320;2022-11-12T04:20:01;100421.03;;;8.12;66.17
21566;BME280;10943;48.738;9.320;2022-11-12T04:23:05;100416.50;;;7.73;67.00
21566;BME280;10943;48.738;9.320;2022-11-12T04:25:51;100415.81;;;7.94;66.53
21566;BME280;10943;48.738;9.320;2022-11-12T04:28:56;100410.28;;;8.32;65.19
21566;BME280;10943;48.738;9.320;2022-11-12T04:32:01;100413.19;;;7.78;66.33
21566;BME280;10943;48.738;9.320;2022-11-12T04:34:48;100404.06;;;8.15;65.95
21566;BME280;10943;48.738;9.320;2022-11-12T04:37:36;100398.28;;;7.87;66.45
21566;BME280;10943;48.738;9.320;2022-11-12T04:40:31;100399.72;;;7.98;66.24
21566;BME280;10943;48.738;9.320;2022-11-12T04:43:36;100402.88;;;7.95;66.15
21566;BME280;10943;48.738;9.320;2022-11-12T04:46:41;100395.97;;;8.29;65.13
21566;BME280;10943;48.738;9.320;2022-11-12T04:49:27;100399.72;;;8.36;65.03
21566;BME280;10943;48.738;9.320;2022-11-12T04:52:14;100406.03;;;8.45;64.70
21566;BME280;10943;48.738;9.320;2022-11-12T04:55:04;100412.59;;;8.43;64.84
21566;BME280;10943;48.738;9.320;2022-11-12T04:57:51;100406.09;;;8.36;65.08
21566;BME280;10943;48.738;9.320;2022-11-12T05:00:45;100411.56;;;8.06;65.96
21566;BME280;10943;48.738;9.320;2022-11-12T05:03:32;100409.09;;;8.12;65.36
21566;BME280;10943;48.738;9.320;2022-11-12T05:06:18;100412.91;;;8.49;64.23
21566;BME280;10943;48.738;9.320;2022-11-12T05:09:33;100413.56;;;8.51;64.76
21566;BME280;10943;48.738;9.320;2022-11-12T05:12:19;100411.41;;;8.76;63.78
21566;BME280;10943;48.738;9.320;2022-11-12T05:15:06;100412.53;;;8.52;63.76
21566;BME280;10943;48.738;9.320;2022-11-12T05:17:53;100403.53;;;8.35;64.55
21566;BME280;10943;48.738;9.320;2022-11-12T05:20:39;100406.44;;;8.18;65.64
21566;BME280;10943;48.738;9.320;2022-11-12T05:23:24;100419.88;;;8.59;64.35
21566;BME280;10943;48.738;9.320;2022-11-12T05:26:11;100418.31;;;8.04;65.40
21566;BME280;10943;48.738;9.320;2022-11-12T05:28:58;100410.16;;;8.49;64.29
21566;BME280;10943;48.738;9.320;2022-11-12T05:31:44;100402.94;;;8.24;65.00
21566;BME280;10943;48.738;9.320;2022-11-12T05:34:30;100403.63;;;8.26;65.00
21566;BME280;10943;48.738;9.320;2022-11-12T05:37:18;100410.78;;;8.36;64.72
21566;BME280;10943;48.738;9.320;2022-11-12T05:40:05;100406.72;;;8.47;64.20
21566;BME280;10943;48.738;9.320;2022-11-12T05:42:52;100407.41;;;8.40;64.03
21566;BME280;10943;48.738;9.320;2022-11-12T05:45:41;100411.97;;;7.80;65.94
21566;BME280;10943;48.738;9.320;2022-11-12T05:48:29;100415.34;;;7.67;66.38
21566;BME280;10943;48.738;9.320;2022-11-12T05:51:16;100424.13;;;7.94;66.09
21566;BME280;10943;48.738;9.320;2022-11-12T05:54:02;100426.59;;;8.04;64.88
21566;BME280;10943;48.738;9.320;2022-11-12T05:56:51;100424.53;;;8.21;64.78
21566;BME280;10943;48.738;9.320;2022-11-12T05:59:40;100426.63;;;8.57;63.01
21566;BME280;10943;48.738;9.320;2022-11-12T06:02:26;100426.13;;;8.38;63.55
21566;BME280;10943;48.738;9.320;2022-11-12T06:05:12;100424.88;;;7.80;65.67
21566;BME280;10943;48.738;9.320;2022-11-12T06:07:58;100435.38;;;8.07;65.55
21566;BME280;10943;48.738;9.320;2022-11-12T06:10:52;100437.41;;;8.52;64.15
21566;BME280;10943;48.738;9.320;2022-11-12T06:13:39;100437.22;;;8.83;63.15
21566;BME280;10943;48.738;9.320;2022-11-12T06:16:25;100437.72;;;8.87;62.70
21566;BME280;10943;48.738;9.320;2022-11-12T06:19:10;100441.38;;;8.34;64.46
21566;BME280;10943;48.738;9.320;2022-11-12T06:21:56;100434.59;;;8.37;64.55
21566;BME280;10943;48.738;9.320;2022-11-12T06:24:42;100447.66;;;8.05;65.65
21566;BME280;10943;48.738;9.320;2022-11-12T06:27:28;100444.13;;;7.41;67.49
21566;BME280;10943;48.738;9.320;2022-11-12T06:30:14;100444.59;;;7.22;68.99
21566;BME280;10943;48.738;9.320;2022-11-12T06:33:00;100450.44;;;7.82;67.09
21566;BME280;10943;48.738;9.320;2022-11-12T06:36:00;100446.88;;;7.73;67.00
21566;BME280;10943;48.738;9.320;2022-11-12T06:38:47;100436.28;;;7.62;67.85
21566;BME280;10943;48.738;9.320;2022-11-12T06:41:33;100432.75;;;7.91;67.07
21566;BME280;10943;48.738;9.320;2022-11-12T06:44:19;100435.50;;;8.67;63.76
21566;BME280;10943;48.738;9.320;2022-11-12T06:47:07;100444.69;;;8.83;63.64
21566;BME280;10943;48.738;9.320;2022-11-12T06:49:54;100432.06;;;8.65;63.60
21566;BME280;10943;48.738;9.320;2022-11-12T06:52:40;100436.13;;;8.39;64.76
21566;BME280;10943;48.738;9.320;2022-11-12T06:55:25;100427.34;;;8.36;64.37
21566;BME280;10943;48.738;9.320;2022-11-12T06:58:11;100424.78;;;8.34;64.93
21566;BME280;10943;48.738;9.320;2022-11-12T07:01:06;100433.69;;;8.89;62.64
21566;BME280;10943;48.738;9.320;2022-11-12T07:03:59;100438.34;;;9.19;61.93
21566;BME280;10943;48.738;9.320;2022-11-12T07:06:45;100441.44;;;8.94;62.28
21566;BME280;10943;48.738;9.320;2022-11-12T07:09:33;100435.44;;;8.37;64.93
21566;BME280;10943;48.738;9.320;2022-11-12T07:12:20;100433.41;;;8.54;64.41
21566;BME280;10943;48.738;9.320;2022-11-12T07:15:06;100444.94;;;8.73;63.54
21566;BME280;10943;48.738;9.320;2022-11-12T07:17:52;100433.97;;;9.10;62.56
21566;BME280;10943;48.738;9.320;2022-11-12T07:20:40;100444.47;;;8.84;63.22
21566;BME280;10943;48.738;9.320;2022-11-12T07:23:26;100444.19;;;8.64;63.44
21566;BME280;10943;48.738;9.320;2022-11-12T07:26:22;100439.63;;;8.56;64.87
21566;BME280;10943;48.738;9.320;2022-11-12T07:29:10;100439.53;;;8.80;64.28
21566;BME280;10943;48.738;9.320;2022-11-12T07:31:57;100433.91;;;8.88;63.12
21566;BME280;10943;48.738;9.320;2022-11-12T07:34:43;100445.63;;;8.90;63.29
21566;BME280;10943;48.738;9.320;2022-11-12T07:37:33;100433.66;;;9.34;62.07
21566;BME280;10943;48.738;9.320;2022-11-12T07:40:20;100435.00;;;9.23;63.21
21566;BME280;10943;48.738;9.320;2022-11-12T07:43:11;100432.81;;;9.19;62.44
21566;BME280;10943;48.738;9.320;2022-11-12T07:46:23;100435.22;;;8.62;64.32
21566;BME280;10943;48.738;9.320;2022-11-12T07:49:10;100439.31;;;8.96;64.11
21566;BME280;10943;48.738;9.320;2022-11-12T07:51:58;100440.41;;;9.68;62.05
21566;BME280;10943;48.738;9.320;2022-11-12T07:54:43;100434.03;;;9.31;62.08
21566;BME280;10943;48.738;9.320;2022-11-12T07:57:32;100444.72;;;9.34;61.39
21566;BME280;10943;48.738;9.320;2022-11-12T08:00:18;100444.63;;;9.64;60.84
21566;BME280;10943;48.738;9.320;2022-11-12T08:03:04;100435.69;;;9.11;63.03
21566;BME280;10943;48.738;9.320;2022-11-12T08:05:51;100436.06;;;9.07;63.37
21566;BME280;10943;48.738;9.320;2022-11-12T08:08:37;100431.72;;;9.93;60.46
21566;BME280;10943;48.738;9.320;2022-11-12T08:11:26;100434.09;;;9.74;60.37
21566;BME280;10943;48.738;9.320;2022-11-12T08:14:13;100428.28;;;9.69;61.54
21566;BME280;10943;48.738;9.320;2022-11-12T08:16:58;100439.25;;;9.99;60.65
21566;BME280;10943;48.738;9.320;2022-11-12T08:19:45;100430.63;;;10.37;58.92
21566;BME280;10943;48.738;9.320;2022-11-12T08:22:31;100434.91;;;10.68;57.63
21566;BME280;10943;48.738;9.320;2022-11-12T08:25:17;100433.78;;;10.34;58.58
21566;BME280;10943;48.738;9.320;2022-11-12T08:28:06;100433.44;;;10.72;58.62
21566;BME280;10943;48.738;9.320;2022-11-12T08:30:55;100435.59;;;10.70;58.24
21566;BME280;10943;48.738;9.320;2022-11-12T08:33:45;100430.09;;;10.84;57.61
21566;BME280;10943;48.738;9.320;2022-11-12T08:36:33;100430.81;;;10.93;57.11
21566;BME280;10943;48.738;9.320;2022-11-12T08:39:21;100428.69;;;10.66;58.24
21566;BME280;10943;48.738;9.320;2022-11-12T08:42:07;100431.91;;;10.63;58.61
21566;BME280;10943;48.738;9.320;2022-11-12T08:44:56;100438.25;;;10.92;56.98
21566;BME280;10943;48.738;9.320;2022-11-12T08:47:42;100440.56;;;11.23;56.45
21566;BME280;10943;48.738;9.320;2022-11-12T08:50:29;100445.16;;;11.03;57.22
21566;BME280;10943;48.738;9.320;2022-11-12T08:53:25;100443.25;;;10.68;57.84
21566;BME280;10943;48.738;9.320;2022-11-12T08:56:12;100441.25;;;10.90;58.06
21566;BME280;10943;48.738;9.320;2022-11-12T08:58:58;100451.72;;;11.37;56.34
21566;BME280;10943;48.738;9.320;2022-11-12T09:01:50;100447.72;;;11.04;57.19
21566;BME280;10943;48.738;9.320;2022-11-12T09:04:36;100444.72;;;11.48;55.72
21566;BME280;10943;48.738;9.320;2022-11-12T09:07:22;100445.34;;;11.36;55.69
21566;BME280;10943;48.738;9.320;2022-11-12T09:10:34;100440.81;;;10.30;59.96
21566;BME280;10943;48.738;9.320;2022-11-12T09:13:20;100437.13;;;11.21;57.69
21566;BME280;10943;48.738;9.320;2022-11-12T09:16:08;100440.22;;;11.47;56.01
21566;BME280;10943;48.738;9.320;2022-11-12T09:18:55;100431.66;;;11.42;56.12
21566;BME280;10943;48.738;9.320;2022-11-12T09:21:41;100418.19;;;10.55;58.28
21566;BME280;10943;48.738;9.320;2022-11-12T09:24:27;100424.19;;;10.94;57.75
21566;BME280;10943;48.738;9.320;2022-11-12T09:27:12;100421.38;;;11.29;56.26
21566;BME280;10943;48.738;9.320;2022-11-12T09:29:58;100414.28;;;10.78;58.04
21566;BME280;10943;48.738;9.320;2022-11-12T09:32:44;100416.19;;;11.19;58.28
21566;BME280;10943;48.738;9.320;2022-11-12T09:35:30;100416.34;;;11.79;56.02
21566;BME280;10943;48.738;9.320;2022-11-12T09:38:16;100416.88;;;12.36;53.36
21566;BME280;10943;48.738;9.320;2022-11-12T09:41:15;100422.44;;;12.03;54.60
21566;BME280;10943;48.738;9.320;2022-11-12T09:44:11;100409.38;;;12.44;54.19
21566;BME280;10943;48.738;9.320;2022-11-12T09:50:32;100419.19;;;12.53;52.86
21566;BME280;10943;48.738;9.320;2022-11-12T09:53:41;100424.16;;;12.11;54.40
21566;BME280;10943;48.738;9.320;2022-11-12T09:56:32;100415.19;;;12.29;53.92
21566;BME280;10943;48.738;9.320;2022-11-12T09:59:18;100412.94;;;11.64;55.45
21566;BME280;10943;48.738;9.320;2022-11-12T10:03:13;100405.25;;;11.72;55.60
21566;BME280;10943;48.738;9.320;2022-11-12T10:06:34;100402.75;;;12.11;54.96
21566;BME280;10943;48.738;9.320;2022-11-12T10:13:59;100401.03;;;12.57;53.66
21566;BME280;10943;48.738;9.320;2022-11-12T10:20:54;100396.50;;;13.35;51.73
21566;BME280;10943;48.738;9.320;2022-11-12T10:23:46;100401.06;;;14.00;50.75
21566;BME280;10943;48.738;9.320;2022-11-12T10:26:38;100385.59;;;14.73;49.33
21566;BME280;10943;48.738;9.320;2022-11-12T10:29:55;100386.56;;;14.60;49.41
21566;BME280;10943;48.738;9.320;2022-11-12T10:32:46;100393.50;;;15.32;48.42
21566;BME280;10943;48.738;9.320;2022-11-12T10:35:35;100391.78;;;16.22;46.16
21566;BME280;10943;48.738;9.320;2022-11-12T10:38:25;100385.22;;;16.76;45.73
21566;BME280;10943;48.738;9.320;2022-11-12T10:41:32;100379.66;;;18.15;41.55
21566;BME280;10943;48.738;9.320;2022-11-12T10:44:25;100382.91;;;19.41;40.03
21566;BME280;10943;48.738;9.320;2022-11-12T10:47:39;100373.69;;;20.28;37.64
21566;BME280;10943;48.738;9.320;2022-11-12T10:50:41;100374.66;;;21.40;36.12
21566;BME280;10943;48.738;9.320;2022-11-12T10:53:38;100377.09;;;22.82;32.63
21566;BME280;10943;48.738;9.320;2022-11-12T10:56:29;100382.03;;;23.37;32.01
21566;BME280;10943;48.738;9.320;2022-11-12T10:59:25;100373.72;;;22.65;32.60
21566;BME280;10943;48.738;9.320;2022-11-12T11:02:16;100379.09;;;22.66;33.09
21566;BME280;10943;48.738;9.320;2022-11-12T11:08:11;100364.94;;;22.66;33.09
21566;BME280;10943;48.738;9.320;2022-11-12T11:11:22;100359.75;;;23.20;31.92
21566;BME280;10943;48.738;9.320;2022-11-12T11:17:17;100357.03;;;24.04;30.39
21566;BME280;10943;48.738;9.320;2022-11-12T11:20:05;100356.38;;;24.47;29.13
21566;BME280;10943;48.738;9.320;2022-11-12T11:30:24;100340.34;;;22.77;31.35
21566;BME280;10943;48.738;9.320;2022-11-12T11:40:19;100327.69;;;23.90;29.60
21566;BME280;10943;48.738;9.320;2022-11-12T11:46:42;100333.19;;;23.66;29.25
21566;BME280;10943;48.738;9.320;2022-11-12T11:49:45;100312.94;;;22.67;31.12
21566;BME280;10943;48.738;9.320;2022-11-12T11:52:43;100312.31;;;21.41;34.10
21566;BME280;10943;48.738;9.320;2022-11-12T11:55:42;100308.44;;;21.68;32.69
21566;BME280;10943;48.738;9.320;2022-11-12T12:05:49;100306.22;;;22.37;32.09
21566;BME280;10943;48.738;9.320;2022-11-12T12:12:38;100308.16;;;23.38;30.66
21566;BME280;10943;48.738;9.320;2022-11-12T12:19:48;100293.84;;;23.09;31.42
21566;BME280;10943;48.738;9.320;2022-11-12T12:22:49;100295.97;;;22.67;31.87
21566;BME280;10943;48.738;9.320;2022-11-12T12:25:44;100296.41;;;23.05;31.32
21566;BME280;10943;48.738;9.320;2022-11-12T12:32:17;100283.59;;;22.22;32.61
21566;BME280;10943;48.738;9.320;2022-11-12T12:35:23;100283.81;;;22.77;32.44
21566;BME280;10943;48.738;9.320;2022-11-12T12:41:28;100273.41;;;22.47;33.47
21566;BME280;10943;48.738;9.320;2022-11-12T12:44:21;100277.66;;;22.39;33.44
21566;BME280;10943;48.738;9.320;2022-11-12T12:47:37;100272.28;;;22.22;34.53
21566;BME280;10943;48.738;9.320;2022-11-12T12:50:27;100261.03;;;21.91;33.88
21566;BME280;10943;48.738;9.320;2022-11-12T12:58:59;100256.66;;;20.53;36.48
21566;BME280;10943;48.738;9.320;2022-11-12T13:02:01;100243.91;;;20.40;37.61
21566;BME280;10943;48.738;9.320;2022-11-12T13:04:55;100243.34;;;20.43;37.17
21566;BME280;10943;48.738;9.320;2022-11-12T13:07:47;100245.31;;;20.37;37.27
21566;BME280;10943;48.738;9.320;2022-11-12T13:13:27;100243.09;;;20.44;37.25
21566;BME280;10943;48.738;9.320;2022-11-12T13:25:33;100226.47;;;20.43;37.15
21566;BME280;10943;48.738;9.320;2022-11-12T13:32:34;100235.16;;;19.34;39.42
21566;BME280;10943;48.738;9.320;2022-11-12T13:35:39;100228.34;;;19.24;39.63
21566;BME280;10943;48.738;9.320;2022-11-12T13:38:25;100230.72;;;18.88;40.28
21566;BME280;10943;48.738;9.320;2022-11-12T13:41:16;100225.63;;;19.07;40.71
21566;BME280;10943;48.738;9.320;2022-11-12T13:44:26;100230.88;;;18.99;40.65
21566;BME280;10943;48.738;9.320;2022-11-12T13:47:20;100235.31;;;18.94;40.82
21566;BME280;10943;48.738;9.320;2022-11-12T13:50:16;100229.09;;;18.92;40.78
21566;BME280;10943;48.738;9.320;2022-11-12T13:53:09;100230.91;;;19.04;40.55
21566;BME280;10943;48.738;9.320;2022-11-12T13:55:58;100214.06;;;18.82;41.01
21566;BME280;10943;48.738;9.320;2022-11-12T13:58:44;100214.84;;;18.77;41.22
21566;BME280;10943;48.738;9.320;2022-11-12T14:01:31;100208.16;;;18.83;41.12
21566;BME280;10943;48.738;9.320;2022-11-12T14:04:22;100207.06;;;18.84;40.87
21566;BME280;10943;48.738;9.320;2022-11-12T14:07:43;100209.81;;;18.79;41.16
21566;BME280;10943;48.738;9.320;2022-11-12T14:17:10;100215.16;;;18.36;41.92
21566;BME280;10943;48.738;9.320;2022-11-12T14:20:33;100202.88;;;18.20;42.91
21566;BME280;10943;48.738;9.320;2022-11-12T14:23:23;100201.69;;;18.16;42.88
21566;BME280;10943;48.738;9.320;2022-11-12T14:29:21;100201.63;;;17.77;44.00
21566;BME280;10943;48.738;9.320;2022-11-12T14:32:08;100193.91;;;17.67;44.90
21566;BME280;10943;48.738;9.320;2022-11-12T14:34:54;100190.34;;;17.55;45.10
21566;BME280;10943;48.738;9.320;2022-11-12T14:37:49;100180.13;;;17.48;46.05
21566;BME280;10943;48.738;9.320;2022-11-12T14:43:51;100174.53;;;17.31;45.93
21566;BME280;10943;48.738;9.320;2022-11-12T14:46:57;100173.66;;;17.14;46.03
21566;BME280;10943;48.738;9.320;2022-11-12T14:49:47;100167.19;;;16.96;46.51
21566;BME280;10943;48.738;9.320;2022-11-12T14:52:41;100173.53;;;16.80;47.24
21566;BME280;10943;48.738;9.320;2022-11-12T14:55:34;100170.47;;;16.64;47.88
21566;BME280;10943;48.738;9.320;2022-11-12T14:58:28;100171.47;;;16.58;48.01
21566;BME280;10943;48.738;9.320;2022-11-12T15:01:33;100168.81;;;16.40;48.69
21566;BME280;10943;48.738;9.320;2022-11-12T15:04:53;100167.91;;;16.22;49.00
21566;BME280;10943;48.738;9.320;2022-11-12T15:08:09;100167.56;;;16.07;49.07
21566;BME280;10943;48.738;9.320;2022-11-12T15:11:46;100161.50;;;15.86;50.32
21566;BME280;10943;48.738;9.320;2022-11-12T15:14:34;100164.53;;;15.73;50.81
21566;BME280;10943;48.738;9.320;2022-11-12T15:17:40;100161.09;;;15.59;51.42
21566;BME280;10943;48.738;9.320;2022-11-12T15:20:29;100159.16;;;15.47;51.60
21566;BME280;10943;48.738;9.320;2022-11-12T15:23:17;100163.50;;;15.31;52.33
21566;BME280;10943;48.738;9.320;2022-11-12T15:26:13;100161.16;;;15.05;53.86
21566;BME280;10943;48.738;9.320;2022-11-12T15:29:32;100150.88;;;14.87;54.16
21566;BME280;10943;48.738;9.320;2022-11-12T15:32:33;100152.34;;;14.89;53.72
21566;BME280;10943;48.738;9.320;2022-11-12T15:35:44;100145.13;;;14.69;54.10
21566;BME280;10943;48.738;9.320;2022-11-12T15:38:38;100138.19;;;14.42;55.11
21566;BME280;10943;48.738;9.320;2022-11-12T15:41:32;100142.41;;;14.14;55.82
21566;BME280;10943;48.738;9.320;2022-11-12T15:44:19;100137.78;;;14.08;55.71
21566;BME280;10943;48.738;9.320;2022-11-12T15:47:16;100127.06;;;14.05;55.90
21566;BME280;10943;48.738;9.320;2022-11-12T15:50:16;100137.63;;;14.02;56.28
21566;BME280;10943;48.738;9.320;2022-11-12T15:53:18;100124.88;;;13.69;57.28
21566;BME280;10943;48.738;9.320;2022-11-12T15:56:18;100133.09;;;13.64;57.50
21566;BME280;10943;48.738;9.320;2022-11-12T15:59:33;100127.81;;;13.56;57.52
21566;BME280;10943;48.738;9.320;2022-11-12T16:02:19;100124.53;;;13.41;58.50
21566;BME280;10943;48.738;9.320;2022-11-12T16:05:13;100123.66;;;13.15;59.09
21566;BME280;10943;48.738;9.320;2022-11-12T16:08:00;100132.69;;;13.35;58.71
21566;BME280;10943;48.738;9.320;2022-11-12T16:10:48;100136.69;;;13.21;59.21
21566;BME280;10943;48.738;9.320;2022-11-12T16:13:36;100120.00;;;12.89;60.27
21566;BME280;10943;48.738;9.320;2022-11-12T16:16:26;100134.63;;;12.78;60.26
21566;BME280;10943;48.738;9.320;2022-11-12T16:19:13;100130.97;;;12.52;61.17
21566;BME280;10943;48.738;9.320;2022-11-12T16:22:40;100131.50;;;12.67;60.86
21566;BME280;10943;48.738;9.320;2022-11-12T16:26:07;100137.53;;;12.64;61.25
21566;BME280;10943;48.738;9.320;2022-11-12T16:29:12;100129.66;;;12.16;62.99
21566;BME280;10943;48.738;9.320;2022-11-12T16:32:14;100126.91;;;12.09;62.45
21566;BME280;10943;48.738;9.320;2022-11-12T16:35:07;100122.81;;;12.12;63.12
21566;BME280;10943;48.738;9.320;2022-11-12T16:37:56;100125.63;;;11.98;63.30
21566;BME280;10943;48.738;9.320;2022-11-12T16:40:46;100120.13;;;11.78;63.98